Time;durP1;ratioP1;P1;durP2;ratioP2;P2;SDS_P1;SDS_P2;PMS_P1;PMS_P2;Temp;Humidity;BMP_temperature;BMP_pressure;BME280_temperature;BME280_humidity;BME280_pressure;Samples;Min_cycle;Max_cycle;Signal;HPM_P1;HPM_P2
2021/12/18 00:01:30;;;;;;;;;;;8.50;99.90;;;;;;5080715;28;19920;-62
2021/12/18 00:03:55;;;;;;;;;;;8.60;99.90;;;;;;5075191;28;19909;-62
2021/12/18 00:06:21;;;;;;;;;;;8.50;99.90;;;;;;5076439;28;19916;-62
2021/12/18 00:08:47;;;;;;;;;;;8.50;99.90;;;;;;5077861;28;20003;-62
2021/12/18 00:11:13;;;;;;;;;;;8.50;99.90;;;;;;5077080;28;19947;-61
2021/12/18 00:13:38;;;;;;;;;;;8.40;99.90;;;;;;5073645;28;19916;-62
2021/12/18 00:16:04;;;;;;;;;;;8.30;99.90;;;;;;5076635;28;20535;-62
2021/12/18 00:18:31;;;;;;;;;;;8.40;99.90;;;;;;5078173;28;19916;-62
2021/12/18 00:20:59;;;;;;;;;;;8.40;99.90;;;;;;5079111;28;20268;-62
2021/12/18 00:23:25;;;;;;;;;;;8.40;99.90;;;;;;5074812;28;20393;-62
2021/12/18 00:25:51;;;;;;;;;;;8.50;99.90;;;;;;5072114;28;19916;-62
2021/12/18 00:28:16;;;;;;;;;;;8.60;99.90;;;;;;5073473;28;19948;-62
2021/12/18 00:30:42;;;;;;;;;;;8.40;99.90;;;;;;5079718;28;19908;-62
2021/12/18 00:33:08;;;;;;;;;;;8.40;99.90;;;;;;5072395;28;20228;-62
2021/12/18 00:35:34;;;;;;;;;;;8.50;99.90;;;;;;5076598;28;19923;-62
2021/12/18 00:38:01;;;;;;;;;;;8.40;99.90;;;;;;5081086;28;19919;-61
2021/12/18 00:40:30;;;;;;;;;;;8.30;99.90;;;;;;5077126;28;19920;-62
2021/12/18 00:42:59;;;;;;;;;;;8.50;99.90;;;;;;5080997;28;20371;-62
2021/12/18 00:45:25;;;;;;;;;;;8.70;99.90;;;;;;5074448;28;20427;-62
2021/12/18 00:47:51;;;;;;;;;;;8.70;99.90;;;;;;5077236;28;19995;-62
2021/12/18 00:50:19;;;;;;;;;;;8.60;99.90;;;;;;5071236;28;20007;-62
2021/12/18 00:52:46;;;;;;;;;;;8.60;99.90;;;;;;5071645;28;20357;-62
2021/12/18 00:55:12;;;;;;;;;;;8.60;99.90;;;;;;5070752;28;20882;-62
2021/12/18 00:57:37;;;;;;;;;;;8.40;99.90;;;;;;5076959;28;19915;-62
2021/12/18 01:00:05;;;;;;;;;;;8.50;99.90;;;;;;5075082;28;20554;-62
2021/12/18 01:02:31;;;;;;;;;;;8.60;99.90;;;;;;5079260;28;19951;-61
2021/12/18 01:04:56;;;;;;;;;;;8.50;99.90;;;;;;5073603;28;19967;-62
2021/12/18 01:07:22;;;;;;;;;;;8.40;99.90;;;;;;5074239;28;19924;-62
2021/12/18 01:12:31;;;;;;;;;;;8.20;99.90;;;;;;5075222;28;19916;-62
2021/12/18 01:23:22;;;;;;;;;;;8.30;99.90;;;;;;5073538;28;20378;-62
2021/12/18 01:25:48;;;;;;;;;;;8.40;99.90;;;;;;5073859;28;19927;-62
2021/12/18 01:28:14;;;;;;;;;;;8.50;99.90;;;;;;5073939;28;19927;-62
2021/12/18 01:30:39;;;;;;;;;;;8.30;99.90;;;;;;5076858;28;19917;-62
2021/12/18 01:33:05;;;;;;;;;;;8.20;99.90;;;;;;5075112;28;19916;-62
2021/12/18 01:35:30;;;;;;;;;;;8.30;99.90;;;;;;5075234;28;19990;-62
2021/12/18 01:37:57;;;;;;;;;;;8.20;99.90;;;;;;5072548;28;19908;-62
2021/12/18 01:40:23;;;;;;;;;;;8.40;99.90;;;;;;5075075;28;19956;-62
2021/12/18 01:53:11;;;;;;;;;;;8.20;99.90;;;;;;5073842;28;19962;-62
2021/12/18 01:55:37;;;;;;;;;;;8.40;99.90;;;;;;5071321;28;19913;-62
2021/12/18 01:58:03;;;;;;;;;;;8.20;99.90;;;;;;5074031;28;19960;-62
2021/12/18 02:00:31;;;;;;;;;;;8.20;99.90;;;;;;5075097;28;20515;-62
2021/12/18 02:02:56;;;;;;;;;;;8.30;99.90;;;;;;5068952;28;19970;-62
2021/12/18 02:05:22;;;;;;;;;;;8.20;99.90;;;;;;5071216;28;19916;-62
2021/12/18 02:07:47;;;;;;;;;;;8.20;99.90;;;;;;5074171;28;19908;-62
2021/12/18 02:10:22;;;;;;;;;;;8.30;99.90;;;;;;5076643;28;19920;-62
2021/12/18 02:12:57;;;;;;;;;;;8.30;99.90;;;;;;5074957;28;19919;-62
2021/12/18 02:20:52;;;;;;;;;;;8.20;99.90;;;;;;5076665;28;19992;-62
2021/12/18 02:23:17;;;;;;;;;;;8.20;99.90;;;;;;5076774;28;20371;-62
2021/12/18 02:25:43;;;;;;;;;;;8.50;99.90;;;;;;5074432;28;20390;-62
2021/12/18 02:28:16;;;;;;;;;;;8.40;99.90;;;;;;5072697;28;19912;-62
2021/12/18 02:30:42;;;;;;;;;;;8.40;99.90;;;;;;5076124;28;20447;-62
2021/12/18 02:33:07;;;;;;;;;;;8.40;99.90;;;;;;5072645;28;19943;-62
2021/12/18 02:35:38;;;;;;;;;;;8.40;99.90;;;;;;5074799;28;20006;-62
2021/12/18 02:38:08;;;;;;;;;;;8.40;99.90;;;;;;5076217;28;19923;-62
2021/12/18 02:43:21;;;;;;;;;;;8.40;99.90;;;;;;5068069;28;19919;-62
2021/12/18 02:45:47;;;;;;;;;;;8.50;99.90;;;;;;5076128;28;19919;-62
2021/12/18 02:48:12;;;;;;;;;;;8.50;99.90;;;;;;5072097;28;20516;-61
2021/12/18 02:50:39;;;;;;;;;;;8.50;99.90;;;;;;5080003;28;19923;-62
2021/12/18 02:53:05;;;;;;;;;;;8.50;99.90;;;;;;5078389;28;19915;-62
2021/12/18 02:55:30;;;;;;;;;;;8.50;99.90;;;;;;5073745;28;20030;-62
2021/12/18 02:57:56;;;;;;;;;;;8.30;99.90;;;;;;5076601;28;20027;-62
2021/12/18 03:00:23;;;;;;;;;;;8.20;99.90;;;;;;5071850;28;19915;-62
2021/12/18 03:02:49;;;;;;;;;;;8.20;99.90;;;;;;5076519;28;20034;-62
2021/12/18 03:05:21;;;;;;;;;;;8.10;99.90;;;;;;5071057;28;19908;-62
2021/12/18 03:07:52;;;;;;;;;;;8.40;99.90;;;;;;5073204;28;20003;-62
2021/12/18 03:23:47;;;;;;;;;;;8.30;99.90;;;;;;5080787;28;19920;-62
2021/12/18 03:26:14;;;;;;;;;;;8.30;99.90;;;;;;5075287;28;19935;-62
2021/12/18 03:28:39;;;;;;;;;;;8.40;99.90;;;;;;5079834;28;20632;-62
2021/12/18 03:31:05;;;;;;;;;;;8.30;99.90;;;;;;5077020;28;19916;-62
2021/12/18 03:33:30;;;;;;;;;;;8.30;99.90;;;;;;5078373;28;20078;-62
2021/12/18 03:35:56;;;;;;;;;;;8.20;99.90;;;;;;5076921;28;19920;-62
2021/12/18 03:38:21;;;;;;;;;;;8.30;99.90;;;;;;5069807;28;19924;-62
2021/12/18 03:40:47;;;;;;;;;;;8.40;99.90;;;;;;5079906;28;19995;-62
2021/12/18 03:43:12;;;;;;;;;;;8.40;99.90;;;;;;5073107;28;19908;-62
2021/12/18 03:45:38;;;;;;;;;;;8.40;99.90;;;;;;5078688;28;20007;-62
2021/12/18 03:48:03;;;;;;;;;;;8.30;99.90;;;;;;5081079;28;20333;-62
2021/12/18 03:50:29;;;;;;;;;;;8.20;99.90;;;;;;5079641;28;19962;-62
2021/12/18 03:52:55;;;;;;;;;;;8.30;99.90;;;;;;5071829;28;19912;-62
2021/12/18 03:55:21;;;;;;;;;;;8.30;99.90;;;;;;5074501;28;19943;-62
2021/12/18 03:57:46;;;;;;;;;;;8.40;99.90;;;;;;5078717;28;19973;-62
2021/12/18 04:00:13;;;;;;;;;;;8.30;99.90;;;;;;5076614;28;20011;-62
2021/12/18 04:02:39;;;;;;;;;;;8.30;99.90;;;;;;5075983;28;19915;-62
2021/12/18 04:05:05;;;;;;;;;;;8.20;99.90;;;;;;5082690;28;19923;-62
2021/12/18 04:07:30;;;;;;;;;;;8.30;99.90;;;;;;5077142;28;21207;-62
2021/12/18 04:09:56;;;;;;;;;;;8.20;99.90;;;;;;5080903;28;19917;-62
2021/12/18 04:12:22;;;;;;;;;;;8.20;99.90;;;;;;5078257;28;19920;-62
2021/12/18 04:14:47;;;;;;;;;;;8.20;99.90;;;;;;5071701;28;20391;-62
2021/12/18 04:17:13;;;;;;;;;;;8.40;99.90;;;;;;5079615;28;19981;-62
2021/12/18 04:19:38;;;;;;;;;;;8.50;99.90;;;;;;5078074;28;20336;-62
2021/12/18 04:22:04;;;;;;;;;;;8.40;99.90;;;;;;5080525;28;19948;-62
2021/12/18 04:24:29;;;;;;;;;;;8.40;99.90;;;;;;5081092;28;20401;-62
2021/12/18 04:26:55;;;;;;;;;;;8.30;99.90;;;;;;5082626;28;19916;-62
2021/12/18 04:29:21;;;;;;;;;;;8.30;99.90;;;;;;5070526;28;19912;-62
2021/12/18 04:31:46;;;;;;;;;;;8.20;99.90;;;;;;5074436;28;19947;-62
2021/12/18 04:34:12;;;;;;;;;;;8.10;99.90;;;;;;5073666;28;19957;-62
2021/12/18 04:36:37;;;;;;;;;;;8.30;99.90;;;;;;5082110;28;19923;-62
2021/12/18 04:39:03;;;;;;;;;;;8.30;99.90;;;;;;5072341;28;20284;-62
2021/12/18 04:41:42;;;;;;;;;;;8.30;99.90;;;;;;5069620;28;20449;-62
2021/12/18 04:44:08;;;;;;;;;;;8.20;99.90;;;;;;5079290;28;19912;-62
2021/12/18 04:46:33;;;;;;;;;;;8.30;99.90;;;;;;5069594;28;19912;-62
2021/12/18 04:48:59;;;;;;;;;;;8.20;99.90;;;;;;5083324;28;19912;-62
2021/12/18 04:51:24;;;;;;;;;;;8.20;99.90;;;;;;5078797;28;19927;-62
2021/12/18 04:53:50;;;;;;;;;;;8.20;99.90;;;;;;5076351;28;19999;-62
2021/12/18 04:56:15;;;;;;;;;;;8.20;99.90;;;;;;5073630;28;19912;-62
2021/12/18 04:58:41;;;;;;;;;;;8.40;99.90;;;;;;5073828;28;19973;-62
2021/12/18 05:01:06;;;;;;;;;;;8.30;99.90;;;;;;5071905;28;20555;-62
2021/12/18 05:03:32;;;;;;;;;;;8.40;99.90;;;;;;5070206;28;19970;-62
2021/12/18 05:06:00;;;;;;;;;;;8.40;99.90;;;;;;5079005;28;20490;-62
2021/12/18 05:08:26;;;;;;;;;;;8.40;99.90;;;;;;5073685;28;20007;-62
2021/12/18 05:10:51;;;;;;;;;;;8.30;99.90;;;;;;5078900;28;19912;-62
2021/12/18 05:13:17;;;;;;;;;;;8.40;99.90;;;;;;5071358;28;19927;-62
2021/12/18 05:15:42;;;;;;;;;;;8.40;99.90;;;;;;5076123;28;20432;-62
2021/12/18 05:18:08;;;;;;;;;;;8.40;99.90;;;;;;5073138;28;19961;-62
2021/12/18 05:20:33;;;;;;;;;;;8.20;99.90;;;;;;5073163;28;19913;-62
2021/12/18 05:22:59;;;;;;;;;;;8.20;99.90;;;;;;5076558;28;19999;-62
2021/12/18 05:25:24;;;;;;;;;;;8.40;99.90;;;;;;5070010;28;20462;-62
2021/12/18 05:27:50;;;;;;;;;;;8.40;99.90;;;;;;5077915;28;19912;-62
2021/12/18 05:30:15;;;;;;;;;;;8.30;99.90;;;;;;5079615;28;19912;-62
2021/12/18 05:32:41;;;;;;;;;;;8.40;99.90;;;;;;5083935;28;19916;-62
2021/12/18 05:35:06;;;;;;;;;;;8.40;99.90;;;;;;5072215;28;19969;-62
2021/12/18 05:37:45;;;;;;;;;;;8.30;99.90;;;;;;5073437;28;19912;-62
2021/12/18 05:40:12;;;;;;;;;;;8.30;99.90;;;;;;5073018;28;20323;-62
2021/12/18 05:42:38;;;;;;;;;;;8.50;99.90;;;;;;5081812;28;19908;-63
2021/12/18 05:45:05;;;;;;;;;;;8.50;99.90;;;;;;5069756;28;19946;-62
2021/12/18 05:47:30;;;;;;;;;;;8.50;99.90;;;;;;5077899;28;20434;-62
2021/12/18 05:49:56;;;;;;;;;;;8.30;99.90;;;;;;5074521;28;19912;-62
2021/12/18 05:52:23;;;;;;;;;;;8.20;99.90;;;;;;5075979;28;19965;-62
2021/12/18 05:54:48;;;;;;;;;;;8.40;99.90;;;;;;5070100;28;19911;-62
2021/12/18 05:57:14;;;;;;;;;;;8.30;99.90;;;;;;5074210;28;19947;-62
2021/12/18 05:59:40;;;;;;;;;;;8.50;99.90;;;;;;5077836;28;19916;-62
2021/12/18 06:02:06;;;;;;;;;;;8.30;99.90;;;;;;5081071;28;19919;-62
2021/12/18 06:04:31;;;;;;;;;;;8.50;99.90;;;;;;5077248;28;19912;-62
2021/12/18 06:07:04;;;;;;;;;;;8.60;99.90;;;;;;5076142;28;20513;-62
2021/12/18 06:09:31;;;;;;;;;;;8.40;99.90;;;;;;5078641;28;19908;-62
2021/12/18 06:11:57;;;;;;;;;;;8.20;99.90;;;;;;5078561;28;20359;-62
2021/12/18 06:14:22;;;;;;;;;;;8.20;99.90;;;;;;5074235;28;19935;-62
2021/12/18 06:16:47;;;;;;;;;;;8.20;99.90;;;;;;5076831;28;19927;-62
2021/12/18 06:19:13;;;;;;;;;;;8.20;99.90;;;;;;5072161;28;20080;-62
2021/12/18 06:21:38;;;;;;;;;;;8.30;99.90;;;;;;5078217;28;20023;-62
2021/12/18 06:24:04;;;;;;;;;;;8.20;99.90;;;;;;5072205;28;20259;-62
2021/12/18 06:26:30;;;;;;;;;;;8.10;99.90;;;;;;5074641;28;19913;-62
2021/12/18 06:28:55;;;;;;;;;;;8.10;99.90;;;;;;5072118;28;19924;-62
2021/12/18 06:31:21;;;;;;;;;;;8.20;99.90;;;;;;5069753;28;19927;-62
2021/12/18 06:33:46;;;;;;;;;;;8.20;99.90;;;;;;5074266;28;20725;-62
2021/12/18 06:36:12;;;;;;;;;;;8.20;99.90;;;;;;5067580;28;19965;-62
2021/12/18 06:38:37;;;;;;;;;;;8.10;99.90;;;;;;5078293;28;19920;-62
2021/12/18 06:41:03;;;;;;;;;;;8.10;99.90;;;;;;5077300;28;19912;-62
2021/12/18 06:43:28;;;;;;;;;;;8.10;99.90;;;;;;5082375;28;19970;-62
2021/12/18 06:45:54;;;;;;;;;;;8.00;99.90;;;;;;5077091;28;20290;-62
2021/12/18 06:48:19;;;;;;;;;;;8.10;99.90;;;;;;5080964;28;19916;-62
2021/12/18 06:50:45;;;;;;;;;;;8.10;99.90;;;;;;5075826;28;19912;-62
2021/12/18 06:53:10;;;;;;;;;;;8.30;99.90;;;;;;5071163;28;19909;-62
2021/12/18 06:55:36;;;;;;;;;;;8.30;99.90;;;;;;5075181;28;19917;-62
2021/12/18 06:58:01;;;;;;;;;;;8.10;99.90;;;;;;5076843;28;19912;-62
2021/12/18 07:00:27;;;;;;;;;;;8.20;99.90;;;;;;5074746;28;20009;-62
2021/12/18 07:02:53;;;;;;;;;;;8.30;99.90;;;;;;5074787;28;20275;-62
2021/12/18 07:05:19;;;;;;;;;;;8.20;99.90;;;;;;5077794;28;20011;-62
2021/12/18 07:07:44;;;;;;;;;;;8.20;99.90;;;;;;5073891;28;20363;-62
2021/12/18 07:10:11;;;;;;;;;;;8.10;99.90;;;;;;5074775;28;19962;-62
2021/12/18 07:12:37;;;;;;;;;;;8.20;99.90;;;;;;5079450;28;19916;-62
2021/12/18 07:15:04;;;;;;;;;;;8.30;99.90;;;;;;5070446;28;19923;-61
2021/12/18 07:17:30;;;;;;;;;;;8.30;99.90;;;;;;5072644;28;19924;-62
2021/12/18 07:19:55;;;;;;;;;;;8.20;99.90;;;;;;5077527;28;19915;-62
2021/12/18 07:22:21;;;;;;;;;;;8.30;99.90;;;;;;5072993;28;19920;-62
2021/12/18 07:24:46;;;;;;;;;;;8.30;99.90;;;;;;5077237;28;20564;-62
2021/12/18 07:27:11;;;;;;;;;;;8.20;99.90;;;;;;5078087;28;19988;-62
2021/12/18 07:29:37;;;;;;;;;;;8.30;99.90;;;;;;5071098;28;19948;-62
2021/12/18 07:32:03;;;;;;;;;;;8.30;99.90;;;;;;5073181;28;19920;-62
2021/12/18 07:34:28;;;;;;;;;;;8.30;99.90;;;;;;5071684;28;19912;-62
2021/12/18 07:36:54;;;;;;;;;;;8.40;99.90;;;;;;5076654;28;19924;-62
2021/12/18 07:39:19;;;;;;;;;;;8.30;99.90;;;;;;5074702;28;19908;-61
2021/12/18 07:41:45;;;;;;;;;;;8.30;99.90;;;;;;5073039;28;19999;-62
2021/12/18 07:44:10;;;;;;;;;;;8.30;99.90;;;;;;5077716;28;19908;-62
2021/12/18 07:46:37;;;;;;;;;;;8.30;99.90;;;;;;5078761;28;19934;-61
2021/12/18 07:49:04;;;;;;;;;;;8.30;99.90;;;;;;5069583;28;19924;-61
2021/12/18 07:51:30;;;;;;;;;;;8.40;99.90;;;;;;5073423;28;20455;-62
2021/12/18 07:53:56;;;;;;;;;;;8.40;99.90;;;;;;5071522;28;19911;-62
2021/12/18 07:56:21;;;;;;;;;;;8.40;99.90;;;;;;5070838;28;19942;-62
2021/12/18 07:58:47;;;;;;;;;;;8.40;99.90;;;;;;5078362;28;19916;-62
2021/12/18 08:01:12;;;;;;;;;;;8.40;99.90;;;;;;5068522;28;19986;-62
2021/12/18 08:03:38;;;;;;;;;;;8.20;99.90;;;;;;5076098;28;20006;-62
2021/12/18 08:06:04;;;;;;;;;;;8.10;99.90;;;;;;5081610;28;20001;-62
2021/12/18 08:08:29;;;;;;;;;;;8.00;99.90;;;;;;5074596;28;20000;-62
2021/12/18 08:10:55;;;;;;;;;;;7.90;99.90;;;;;;5079407;28;20004;-62
2021/12/18 08:13:21;;;;;;;;;;;7.90;99.90;;;;;;5075451;28;19920;-62
2021/12/18 08:15:46;;;;;;;;;;;7.90;99.90;;;;;;5076835;28;19943;-62
2021/12/18 08:18:12;;;;;;;;;;;7.90;99.90;;;;;;5075866;28;19947;-61
2021/12/18 08:20:37;;;;;;;;;;;7.90;99.90;;;;;;5081237;28;19908;-62
2021/12/18 08:23:03;;;;;;;;;;;8.00;99.90;;;;;;5081801;28;20389;-62
2021/12/18 08:25:29;;;;;;;;;;;8.00;99.90;;;;;;5076130;28;19916;-62
2021/12/18 08:27:55;;;;;;;;;;;8.00;99.90;;;;;;5072858;28;20391;-61
2021/12/18 08:30:22;;;;;;;;;;;7.90;99.90;;;;;;5075765;28;19943;-62
2021/12/18 08:32:48;;;;;;;;;;;7.80;99.90;;;;;;5075212;28;21700;-62
2021/12/18 08:35:13;;;;;;;;;;;7.90;99.90;;;;;;5075839;28;20003;-62
2021/12/18 08:37:39;;;;;;;;;;;8.00;99.90;;;;;;5075937;28;19924;-62
2021/12/18 08:40:05;;;;;;;;;;;8.20;99.90;;;;;;5080263;28;19916;-62
2021/12/18 08:42:30;;;;;;;;;;;8.00;99.90;;;;;;5074218;28;19922;-62
2021/12/18 08:44:56;;;;;;;;;;;7.90;99.90;;;;;;5076535;28;20599;-61
2021/12/18 08:47:21;;;;;;;;;;;8.00;99.90;;;;;;5079831;28;19946;-62
2021/12/18 08:49:47;;;;;;;;;;;8.00;99.90;;;;;;5078066;28;19966;-63
2021/12/18 08:52:12;;;;;;;;;;;8.00;99.90;;;;;;5081054;28;19919;-63
2021/12/18 08:54:38;;;;;;;;;;;8.00;99.90;;;;;;5076067;28;20356;-63
2021/12/18 08:57:04;;;;;;;;;;;8.10;99.90;;;;;;5076205;28;19951;-63
2021/12/18 08:59:29;;;;;;;;;;;8.00;99.90;;;;;;5078874;28;19919;-63
2021/12/18 09:01:55;;;;;;;;;;;8.00;99.90;;;;;;5077832;28;19931;-63
2021/12/18 09:04:20;;;;;;;;;;;8.00;99.90;;;;;;5075580;28;19916;-63
2021/12/18 09:06:45;;;;;;;;;;;8.00;99.90;;;;;;5073549;28;19912;-63
2021/12/18 09:09:11;;;;;;;;;;;8.10;99.90;;;;;;5077228;28;19912;-63
2021/12/18 09:11:36;;;;;;;;;;;8.20;99.90;;;;;;5076783;28;19916;-63
2021/12/18 09:14:02;;;;;;;;;;;8.20;99.90;;;;;;5072035;28;20274;-63
2021/12/18 09:16:29;;;;;;;;;;;8.20;99.90;;;;;;5073626;28;19916;-63
2021/12/18 09:18:54;;;;;;;;;;;8.20;99.90;;;;;;5074378;28;20389;-62
2021/12/18 09:21:20;;;;;;;;;;;8.20;99.90;;;;;;5074499;28;19912;-62
2021/12/18 09:23:46;;;;;;;;;;;8.10;99.90;;;;;;5071973;28;19965;-63
2021/12/18 09:26:11;;;;;;;;;;;8.10;99.90;;;;;;5076086;28;20609;-63
2021/12/18 09:28:37;;;;;;;;;;;8.30;99.90;;;;;;5077050;28;20331;-63
2021/12/18 09:31:03;;;;;;;;;;;8.20;99.90;;;;;;5077188;28;19927;-63
2021/12/18 09:33:28;;;;;;;;;;;8.20;99.90;;;;;;5073045;28;19909;-62
2021/12/18 09:35:54;;;;;;;;;;;8.20;99.90;;;;;;5071328;28;19916;-63
2021/12/18 09:38:19;;;;;;;;;;;8.40;99.90;;;;;;5072427;28;20273;-62
2021/12/18 09:40:45;;;;;;;;;;;8.30;99.90;;;;;;5066104;28;19928;-63
2021/12/18 09:43:10;;;;;;;;;;;8.30;99.90;;;;;;5069955;28;19916;-63
2021/12/18 09:45:36;;;;;;;;;;;8.40;99.90;;;;;;5069930;28;20208;-62
2021/12/18 09:48:01;;;;;;;;;;;8.20;99.90;;;;;;5076991;28;19969;-63
2021/12/18 09:50:27;;;;;;;;;;;8.20;99.90;;;;;;5070526;28;19996;-62
2021/12/18 09:52:53;;;;;;;;;;;8.30;99.90;;;;;;5076743;28;19920;-63
2021/12/18 09:55:19;;;;;;;;;;;8.50;99.90;;;;;;5068229;28;19975;-63
2021/12/18 09:57:46;;;;;;;;;;;8.50;99.90;;;;;;5071851;28;19920;-62
2021/12/18 10:00:13;;;;;;;;;;;8.40;99.90;;;;;;5069606;28;19915;-62
2021/12/18 10:02:39;;;;;;;;;;;8.30;99.90;;;;;;5070923;28;20383;-63
2021/12/18 10:05:05;;;;;;;;;;;8.20;99.90;;;;;;5073327;28;19920;-62
2021/12/18 10:07:31;;;;;;;;;;;8.30;99.90;;;;;;5071510;28;20513;-62
2021/12/18 10:09:57;;;;;;;;;;;8.40;99.90;;;;;;5070326;28;20000;-62
2021/12/18 10:12:24;;;;;;;;;;;8.40;99.90;;;;;;5071865;28;19920;-62
2021/12/18 10:14:54;;;;;;;;;;;8.30;99.90;;;;;;5070799;28;19939;-62
2021/12/18 10:17:22;;;;;;;;;;;8.20;99.90;;;;;;5066979;28;19923;-62
2021/12/18 10:19:49;;;;;;;;;;;8.30;99.90;;;;;;5068224;28;20276;-63
2021/12/18 10:22:14;;;;;;;;;;;8.30;99.90;;;;;;5070916;28;20658;-62
2021/12/18 10:24:41;;;;;;;;;;;8.20;99.90;;;;;;5070363;28;19943;-62
2021/12/18 10:27:20;;;;;;;;;;;8.30;99.90;;;;;;5071947;28;19916;-62
2021/12/18 10:29:47;;;;;;;;;;;8.30;99.90;;;;;;5071367;28;20449;-63
2021/12/18 10:32:13;;;;;;;;;;;8.40;99.90;;;;;;5071086;28;20025;-62
2021/12/18 10:34:41;;;;;;;;;;;8.50;99.90;;;;;;5071316;28;19920;-62
2021/12/18 10:37:09;;;;;;;;;;;8.30;99.90;;;;;;5073953;28;20398;-62
2021/12/18 10:39:35;;;;;;;;;;;8.20;99.90;;;;;;5075936;28;20306;-62
2021/12/18 10:42:15;;;;;;;;;;;8.20;99.90;;;;;;5064580;28;20288;-62
2021/12/18 10:44:59;;;;;;;;;;;8.20;99.90;;;;;;5073449;28;19955;-62
2021/12/18 10:47:24;;;;;;;;;;;8.20;99.90;;;;;;5070198;28;20019;-61
2021/12/18 10:49:50;;;;;;;;;;;8.30;99.90;;;;;;5065497;28;20008;-62
2021/12/18 10:52:16;;;;;;;;;;;8.30;99.90;;;;;;5078368;28;20264;-62
2021/12/18 10:54:41;;;;;;;;;;;8.20;99.90;;;;;;5072193;28;20238;-62
2021/12/18 10:57:19;;;;;;;;;;;8.20;99.90;;;;;;5074508;28;19916;-62
2021/12/18 10:59:50;;;;;;;;;;;8.30;99.90;;;;;;5077219;28;20296;-62
2021/12/18 11:02:16;;;;;;;;;;;8.20;99.90;;;;;;5071796;28;19916;-62
2021/12/18 11:04:43;;;;;;;;;;;8.30;99.90;;;;;;5073276;28;19912;-62
2021/12/18 11:07:16;;;;;;;;;;;8.30;99.90;;;;;;5074172;28;19926;-63
2021/12/18 11:09:48;;;;;;;;;;;8.30;99.90;;;;;;5071484;28;20620;-62
2021/12/18 11:14:58;;;;;;;;;;;8.60;99.90;;;;;;5071411;28;19927;-62
2021/12/18 11:17:24;;;;;;;;;;;8.40;99.90;;;;;;5073128;28;19920;-62
2021/12/18 11:19:50;;;;;;;;;;;8.30;99.90;;;;;;5071388;28;19919;-62
2021/12/18 11:22:16;;;;;;;;;;;8.20;99.90;;;;;;5069931;28;20292;-62
2021/12/18 11:24:46;;;;;;;;;;;8.10;99.90;;;;;;5078010;28;20330;-62
2021/12/18 11:27:12;;;;;;;;;;;8.10;99.90;;;;;;5068933;28;19916;-63
2021/12/18 11:29:40;;;;;;;;;;;8.00;99.90;;;;;;5076959;28;20366;-62
2021/12/18 11:32:10;;;;;;;;;;;8.00;99.90;;;;;;5064334;28;19912;-63
2021/12/18 11:34:37;;;;;;;;;;;8.00;99.90;;;;;;5075793;28;19974;-62
2021/12/18 11:37:05;;;;;;;;;;;8.20;99.90;;;;;;5071879;28;20662;-61
2021/12/18 11:39:31;;;;;;;;;;;8.40;99.90;;;;;;5074689;28;20637;-60
2021/12/18 11:41:56;;;;;;;;;;;8.50;99.90;;;;;;5076746;28;19916;-60
2021/12/18 11:44:23;;;;;;;;;;;8.40;99.90;;;;;;5078039;28;19981;-60
2021/12/18 11:46:48;;;;;;;;;;;8.10;99.90;;;;;;5069148;28;20379;-60
2021/12/18 11:49:14;;;;;;;;;;;8.30;99.90;;;;;;5075787;28;19912;-61
2021/12/18 11:51:39;;;;;;;;;;;8.50;99.90;;;;;;5078396;28;19916;-61
2021/12/18 11:54:25;;;;;;;;;;;8.40;99.90;;;;;;5079119;28;19912;-61
2021/12/18 11:56:50;;;;;;;;;;;8.10;99.90;;;;;;5073081;28;19916;-61
2021/12/18 11:59:34;;;;;;;;;;;8.00;99.90;;;;;;5075978;28;19919;-60
2021/12/18 12:02:00;;;;;;;;;;;8.00;99.90;;;;;;5069404;28;19912;-60
2021/12/18 12:04:26;;;;;;;;;;;7.90;99.90;;;;;;5082497;28;20265;-61
2021/12/18 12:06:51;;;;;;;;;;;7.80;99.90;;;;;;5077283;28;19920;-60
2021/12/18 12:09:26;;;;;;;;;;;7.90;99.90;;;;;;5073988;28;19916;-61
2021/12/18 12:11:51;;;;;;;;;;;7.80;99.90;;;;;;5079665;28;19919;-61
2021/12/18 12:14:19;;;;;;;;;;;7.90;99.90;;;;;;5075527;28;20378;-61
2021/12/18 12:16:44;;;;;;;;;;;7.80;99.90;;;;;;5075133;28;20631;-61
2021/12/18 12:19:20;;;;;;;;;;;7.70;99.90;;;;;;5075486;28;19955;-61
2021/12/18 12:21:46;;;;;;;;;;;7.70;99.90;;;;;;5077468;28;20404;-61
2021/12/18 12:24:16;;;;;;;;;;;7.80;99.90;;;;;;5078869;28;20228;-61
2021/12/18 12:26:41;;;;;;;;;;;7.70;99.90;;;;;;5080445;28;20813;-60
2021/12/18 12:29:08;;;;;;;;;;;7.70;99.90;;;;;;5077319;28;19968;-61
2021/12/18 12:31:34;;;;;;;;;;;7.80;99.90;;;;;;5070683;28;19916;-61
2021/12/18 12:34:18;;;;;;;;;;;7.90;99.90;;;;;;5080064;28;19987;-60
2021/12/18 12:36:45;;;;;;;;;;;7.70;99.90;;;;;;5075076;28;20364;-61
2021/12/18 12:39:11;;;;;;;;;;;7.70;99.90;;;;;;5074807;28;20000;-61
2021/12/18 12:41:51;;;;;;;;;;;7.60;99.90;;;;;;5073154;28;20653;-62
2021/12/18 12:44:26;;;;;;;;;;;7.70;99.90;;;;;;5075927;28;20287;-60
2021/12/18 12:47:10;;;;;;;;;;;7.70;99.90;;;;;;5074717;28;19986;-60
2021/12/18 12:49:36;;;;;;;;;;;7.70;99.90;;;;;;5076496;28;20019;-61
2021/12/18 12:52:04;;;;;;;;;;;7.80;99.90;;;;;;5081186;28;20027;-61
2021/12/18 12:54:48;;;;;;;;;;;7.70;99.90;;;;;;5080594;28;19908;-61
2021/12/18 12:57:23;;;;;;;;;;;7.70;99.90;;;;;;5078830;28;19982;-61
2021/12/18 12:59:52;;;;;;;;;;;7.60;99.90;;;;;;5076737;28;19912;-60
2021/12/18 13:02:18;;;;;;;;;;;7.70;99.90;;;;;;5071756;28;19912;-60
2021/12/18 13:04:43;;;;;;;;;;;7.80;99.90;;;;;;5071850;28;20399;-61
2021/12/18 13:07:09;;;;;;;;;;;7.70;99.90;;;;;;5076628;28;19926;-60
2021/12/18 13:09:36;;;;;;;;;;;7.60;99.90;;;;;;5077731;28;19927;-61
2021/12/18 13:12:03;;;;;;;;;;;7.60;99.90;;;;;;5072872;28;19919;-62
2021/12/18 13:14:38;;;;;;;;;;;7.60;99.90;;;;;;5076002;28;20342;-61
2021/12/18 13:17:15;;;;;;;;;;;7.70;99.90;;;;;;5069686;28;20415;-61
2021/12/18 13:19:51;;;;;;;;;;;7.70;99.90;;;;;;5077183;28;20443;-60
2021/12/18 13:22:16;;;;;;;;;;;7.50;99.90;;;;;;5072268;28;19969;-61
2021/12/18 13:24:42;;;;;;;;;;;7.60;99.90;;;;;;5073067;28;20298;-60
2021/12/18 13:27:11;;;;;;;;;;;7.60;99.90;;;;;;5074825;28;19918;-61
2021/12/18 13:29:37;;;;;;;;;;;7.70;99.90;;;;;;5073184;28;20389;-60
2021/12/18 13:32:04;;;;;;;;;;;7.60;99.90;;;;;;5066203;28;19965;-61
2021/12/18 13:34:32;;;;;;;;;;;7.50;99.90;;;;;;5077545;28;20291;-62
2021/12/18 13:37:10;;;;;;;;;;;7.60;99.90;;;;;;5071941;28;19916;-61
2021/12/18 13:39:40;;;;;;;;;;;7.50;99.90;;;;;;5071312;28;20283;-60
2021/12/18 13:42:10;;;;;;;;;;;7.70;99.90;;;;;;5084934;28;20275;-61
2021/12/18 13:44:45;;;;;;;;;;;7.50;99.90;;;;;;5069361;28;19916;-61
2021/12/18 13:47:17;;;;;;;;;;;7.50;99.90;;;;;;5070824;28;20733;-60
2021/12/18 13:49:42;;;;;;;;;;;7.40;99.90;;;;;;5077297;28;19973;-60
2021/12/18 13:52:08;;;;;;;;;;;7.50;99.90;;;;;;5076742;28;19917;-61
2021/12/18 13:54:34;;;;;;;;;;;7.40;99.90;;;;;;5072126;28;19916;-60
2021/12/18 13:56:59;;;;;;;;;;;7.30;99.90;;;;;;5071390;28;19954;-61
2021/12/18 13:59:25;;;;;;;;;;;7.10;99.90;;;;;;5068312;28;19916;-61
2021/12/18 14:01:51;;;;;;;;;;;7.10;99.90;;;;;;5073372;28;19931;-60
2021/12/18 14:04:21;;;;;;;;;;;7.10;99.90;;;;;;5074390;28;19919;-60
2021/12/18 14:06:46;;;;;;;;;;;7.10;99.90;;;;;;5072678;28;19920;-60
2021/12/18 14:09:15;;;;;;;;;;;7.10;99.90;;;;;;5071430;28;20264;-61
2021/12/18 14:11:50;;;;;;;;;;;7.10;99.90;;;;;;5068718;28;20010;-60
2021/12/18 14:14:15;;;;;;;;;;;7.00;99.90;;;;;;5076125;28;19916;-61
2021/12/18 14:16:51;;;;;;;;;;;7.00;99.90;;;;;;5077698;28;20652;-61
2021/12/18 14:19:24;;;;;;;;;;;6.90;99.90;;;;;;5070586;28;19908;-60
2021/12/18 14:21:49;;;;;;;;;;;6.90;99.90;;;;;;5077561;28;19920;-60
2021/12/18 14:24:16;;;;;;;;;;;7.00;99.90;;;;;;5067138;28;19916;-61
2021/12/18 14:26:53;;;;;;;;;;;7.20;99.90;;;;;;5071469;28;20500;-60
2021/12/18 14:29:18;;;;;;;;;;;7.00;99.90;;;;;;5069743;28;19908;-61
2021/12/18 14:31:51;;;;;;;;;;;6.90;99.90;;;;;;5065650;28;19920;-60
2021/12/18 14:34:24;;;;;;;;;;;6.80;99.90;;;;;;5069761;28;19938;-61
2021/12/18 14:36:53;;;;;;;;;;;6.60;99.90;;;;;;5078462;28;20008;-60
2021/12/18 14:39:29;;;;;;;;;;;6.70;99.90;;;;;;5065580;28;19968;-60
2021/12/18 14:41:56;;;;;;;;;;;7.00;99.90;;;;;;5069568;28;19920;-60
2021/12/18 14:44:22;;;;;;;;;;;6.70;99.90;;;;;;5071392;28;20398;-62
2021/12/18 14:46:47;;;;;;;;;;;6.60;99.90;;;;;;5076281;28;19912;-60
2021/12/18 14:49:14;;;;;;;;;;;6.70;99.90;;;;;;5075041;28;19920;-61
2021/12/18 14:51:42;;;;;;;;;;;6.70;99.90;;;;;;5075572;28;19928;-61
2021/12/18 14:54:08;;;;;;;;;;;6.50;99.90;;;;;;5066850;28;19916;-61
2021/12/18 14:56:33;;;;;;;;;;;6.50;99.90;;;;;;5074950;28;19974;-60
2021/12/18 14:58:59;;;;;;;;;;;6.60;99.90;;;;;;5078596;28;19908;-61
2021/12/18 15:01:25;;;;;;;;;;;6.50;99.90;;;;;;5072197;28;19980;-61
2021/12/18 15:03:54;;;;;;;;;;;6.50;99.90;;;;;;5076092;28;19954;-61
2021/12/18 15:06:25;;;;;;;;;;;6.70;99.90;;;;;;5065252;28;20554;-61
2021/12/18 15:08:56;;;;;;;;;;;6.90;99.90;;;;;;5071814;28;20373;-60
2021/12/18 15:11:27;;;;;;;;;;;6.60;99.90;;;;;;5078793;28;19919;-61
2021/12/18 15:13:52;;;;;;;;;;;6.60;99.90;;;;;;5071918;28;19912;-60
2021/12/18 15:16:18;;;;;;;;;;;6.50;99.90;;;;;;5076490;28;20412;-61